Time;durP1;ratioP1;P1;durP2;ratioP2;P2;SDS_P1;SDS_P2;PMS_P1;PMS_P2;Temp;Humidity;BMP_temperature;BMP_pressure;BME280_temperature;BME280_humidity;BME280_pressure;Samples;Min_cycle;Max_cycle;Signal;HPM_P1;HPM_P2
2022/02/07 00:00:47;;;;;;;4.38;1.85;;;3.60;99.90;;;;;;5101469;27;20402;-80
2022/02/07 00:05:43;;;;;;;3.37;1.63;;;3.60;99.90;;;;;;5130970;27;20467;-81
2022/02/07 00:08:10;;;;;;;3.15;1.40;;;3.60;99.90;;;;;;5112005;27;20385;-81
2022/02/07 00:10:38;;;;;;;3.85;1.45;;;3.60;99.90;;;;;;5130105;27;20407;-81
2022/02/07 00:13:04;;;;;;;2.72;1.20;;;3.50;99.90;;;;;;5126237;27;20783;-81
2022/02/07 00:15:30;;;;;;;3.13;1.10;;;3.50;99.90;;;;;;5109794;28;20367;-81
2022/02/07 00:17:55;;;;;;;3.87;1.13;;;3.50;99.90;;;;;;5081134;28;20380;-82
2022/02/07 00:20:23;;;;;;;3.60;1.10;;;3.50;99.90;;;;;;5093124;28;20388;-81
2022/02/07 00:22:50;;;;;;;1.88;1.05;;;3.40;99.90;;;;;;5101316;28;20378;-81
2022/02/07 00:25:16;;;;;;;3.55;1.40;;;3.30;99.90;;;;;;5091800;28;20415;-82
2022/02/07 00:27:42;;;;;;;3.08;1.10;;;3.30;99.90;;;;;;5107032;28;20504;-80
2022/02/07 00:30:10;;;;;;;1.87;0.97;;;3.30;99.90;;;;;;5091854;28;20419;-81
2022/02/07 00:32:36;;;;;;;2.78;1.20;;;3.30;99.90;;;;;;5097998;28;20415;-81
2022/02/07 00:35:04;;;;;;;2.85;1.00;;;3.20;99.90;;;;;;5104873;28;20377;-81
2022/02/07 00:37:31;;;;;;;2.22;0.98;;;3.20;99.90;;;;;;5101387;28;20459;-83
2022/02/07 00:40:14;;;;;;;3.83;1.23;;;3.20;99.90;;;;;;5109880;28;20418;-82
2022/02/07 00:42:52;;;;;;;2.47;1.13;;;3.20;99.90;;;;;;5099024;28;20394;-82
2022/02/07 00:45:49;;;;;;;4.10;1.20;;;3.20;99.90;;;;;;5088870;28;20411;-80
2022/02/07 00:48:11;;;;;;;4.28;1.17;;;3.10;99.90;;;;;;5092966;28;20418;-82
2022/02/07 00:50:39;;;;;;;3.63;1.00;;;3.20;99.90;;;;;;5090966;28;20900;-81
2022/02/07 00:53:11;;;;;;;5.53;1.88;;;3.20;99.90;;;;;;5089678;28;20386;-82
2022/02/07 00:55:36;;;;;;;4.53;1.17;;;3.30;99.90;;;;;;5088604;28;20423;-81
2022/02/07 00:58:02;;;;;;;5.22;1.55;;;3.30;99.90;;;;;;5073848;28;20479;-80
2022/02/07 01:00:28;;;;;;;4.78;1.33;;;3.40;99.90;;;;;;5091657;28;20478;-81
2022/02/07 01:02:54;;;;;;;6.43;1.60;;;3.30;99.90;;;;;;5109514;28;20831;-81
2022/02/07 01:05:20;;;;;;;4.73;1.43;;;3.30;99.90;;;;;;5091456;28;20424;-82
2022/02/07 01:07:48;;;;;;;4.37;1.40;;;3.30;99.90;;;;;;5071037;28;20412;-81
2022/02/07 01:10:20;;;;;;;3.55;1.27;;;3.30;99.90;;;;;;5086656;28;20383;-80
2022/02/07 01:15:59;;;;;;;5.97;1.77;;;3.30;99.90;;;;;;5105619;28;21006;-80
2022/02/07 01:51:14;;;;;;;6.28;2.00;;;3.30;99.90;;;;;;5057129;28;20400;-80
2022/02/07 01:56:28;;;;;;;4.00;1.90;;;3.30;99.90;;;;;;5099955;28;21001;-81
2022/02/07 01:58:54;;;;;;;4.07;1.58;;;3.20;99.90;;;;;;5090467;28;20838;-81
2022/02/07 02:01:20;;;;;;;5.53;1.73;;;3.20;99.90;;;;;;5090675;28;20377;-81
2022/02/07 02:03:45;;;;;;;7.60;1.80;;;3.20;99.90;;;;;;5108208;28;20382;-82
2022/02/07 02:06:12;;;;;;;5.67;1.90;;;3.20;99.90;;;;;;5086011;28;20509;-81
2022/02/07 02:08:38;;;;;;;3.30;1.55;;;3.20;99.90;;;;;;5073945;28;20414;-81
2022/02/07 02:11:04;;;;;;;5.30;2.03;;;3.30;99.90;;;;;;5073932;28;20423;-82
2022/02/07 02:13:49;;;;;;;5.00;1.90;;;3.10;99.90;;;;;;5076753;28;20426;-81
2022/02/07 02:16:26;;;;;;;8.70;2.10;;;3.10;99.90;;;;;;5094425;28;20390;-83
2022/02/07 02:37:56;;;;;;;8.27;1.77;;;3.20;99.90;;;;;;5105228;28;20799;-82
2022/02/07 02:45:42;;;;;;;6.07;2.07;;;3.40;99.90;;;;;;5112777;28;20452;-82
2022/02/07 02:48:17;;;;;;;8.32;2.40;;;3.30;99.90;;;;;;5100128;28;20388;-81
2022/02/07 02:50:44;;;;;;;9.17;2.10;;;3.30;99.90;;;;;;5103488;28;20524;-82
2022/02/07 02:53:12;;;;;;;7.25;2.00;;;3.20;99.90;;;;;;5073358;28;20439;-81
2022/02/07 02:55:40;;;;;;;6.57;2.30;;;3.30;99.90;;;;;;5092011;28;20383;-82
2022/02/07 02:58:07;;;;;;;5.93;2.03;;;3.20;99.90;;;;;;5074162;28;20431;-81
2022/02/07 03:00:33;;;;;;;4.43;1.88;;;3.30;99.90;;;;;;5093334;28;20471;-82
2022/02/07 03:02:59;;;;;;;8.83;2.67;;;3.30;99.90;;;;;;5091435;28;21639;-82
2022/02/07 03:05:25;;;;;;;8.60;2.50;;;3.20;99.90;;;;;;5074157;28;20404;-82
2022/02/07 03:07:50;;;;;;;8.80;2.67;;;3.30;99.90;;;;;;5106283;28;20401;-81
2022/02/07 03:10:27;;;;;;;7.20;2.30;;;3.30;99.90;;;;;;5093750;28;20370;-82
2022/02/07 03:13:07;;;;;;;6.93;2.20;;;3.30;99.90;;;;;;5108611;28;20478;-81
2022/02/07 03:18:17;;;;;;;6.03;2.08;;;3.30;99.90;;;;;;5102372;28;20403;-81
2022/02/07 03:20:43;;;;;;;6.20;2.30;;;3.30;99.90;;;;;;5099464;28;20383;-82
2022/02/07 03:23:09;;;;;;;7.75;2.42;;;3.20;99.90;;;;;;5115708;28;20465;-80
2022/02/07 03:25:35;;;;;;;5.90;2.00;;;3.20;99.90;;;;;;5107332;28;20407;-82
2022/02/07 03:28:01;;;;;;;9.13;2.63;;;3.30;99.90;;;;;;5096712;28;20396;-81
2022/02/07 03:30:27;;;;;;;8.15;2.35;;;3.30;99.90;;;;;;5073500;28;20415;-81
2022/02/07 03:32:52;;;;;;;6.47;2.10;;;3.20;99.90;;;;;;5072911;28;20423;-81
2022/02/07 03:35:19;;;;;;;6.07;2.03;;;3.30;99.90;;;;;;5096348;28;20389;-82
2022/02/07 03:37:45;;;;;;;8.10;2.27;;;3.30;99.90;;;;;;5109150;28;20426;-81
2022/02/07 03:40:12;;;;;;;8.38;2.08;;;3.30;99.90;;;;;;5109365;28;20409;-81
2022/02/07 03:42:37;;;;;;;8.02;2.40;;;3.30;99.90;;;;;;5091561;28;20411;-82
2022/02/07 03:45:04;;;;;;;7.25;2.10;;;3.30;99.90;;;;;;5072620;28;20388;-82
2022/02/07 03:47:33;;;;;;;6.40;1.83;;;3.20;99.90;;;;;;5091273;28;20913;-83
2022/02/07 03:49:58;;;;;;;10.40;2.47;;;3.30;99.90;;;;;;5090001;28;20388;-81
2022/02/07 03:52:26;;;;;;;11.10;2.63;;;3.20;99.90;;;;;;5098682;28;20394;-80
2022/02/07 03:54:53;;;;;;;8.23;2.15;;;3.20;99.90;;;;;;5095977;28;20391;-83
2022/02/07 03:57:18;;;;;;;6.55;2.28;;;3.20;99.90;;;;;;5090575;28;20524;-82
2022/02/07 03:59:44;;;;;;;7.07;2.13;;;3.10;99.90;;;;;;5091446;28;20840;-82
2022/02/07 04:02:10;;;;;;;8.02;2.83;;;3.10;99.90;;;;;;5081747;28;20373;-80
2022/02/07 04:04:36;;;;;;;5.25;1.80;;;3.20;99.90;;;;;;5072334;28;20894;-80
2022/02/07 04:07:05;;;;;;;8.25;2.50;;;3.30;99.90;;;;;;5080374;28;20442;-80
2022/02/07 04:09:36;;;;;;;8.05;2.55;;;3.30;99.90;;;;;;5092379;28;20386;-81
2022/02/07 04:12:10;;;;;;;8.05;2.15;;;3.30;99.90;;;;;;5093553;28;20388;-79
2022/02/07 04:14:36;;;;;;;4.97;2.00;;;3.20;99.90;;;;;;5091669;28;20395;-79
2022/02/07 04:17:01;;;;;;;6.22;1.92;;;3.30;99.90;;;;;;5079369;28;20390;-81
2022/02/07 04:19:33;;;;;;;8.98;2.25;;;3.20;99.90;;;;;;5111061;28;20375;-80
2022/02/07 04:22:01;;;;;;;6.82;2.10;;;3.30;99.90;;;;;;5094179;28;20392;-79
2022/02/07 04:24:27;;;;;;;9.50;2.45;;;3.20;99.90;;;;;;5089268;28;20384;-80
2022/02/07 04:26:52;;;;;;;8.07;2.42;;;3.20;99.90;;;;;;5089450;28;20411;-80
2022/02/07 04:29:18;;;;;;;6.88;2.05;;;3.30;99.90;;;;;;5106285;28;20391;-80
2022/02/07 04:31:44;;;;;;;6.47;1.90;;;3.30;99.90;;;;;;5108216;28;20859;-81
2022/02/07 04:34:09;;;;;;;5.33;2.13;;;3.20;99.90;;;;;;5109929;28;20374;-80
2022/02/07 04:36:35;;;;;;;8.45;2.20;;;3.20;99.90;;;;;;5091957;28;20399;-80
2022/02/07 04:39:01;;;;;;;7.60;2.20;;;3.40;99.90;;;;;;5109977;28;20387;-80
2022/02/07 04:41:26;;;;;;;6.47;1.92;;;3.30;99.90;;;;;;5085675;28;20398;-81
2022/02/07 04:44:00;;;;;;;6.88;1.85;;;3.30;99.90;;;;;;5102435;28;20406;-80
2022/02/07 04:46:59;;;;;;;6.47;2.58;;;3.30;99.90;;;;;;5083188;28;20403;-81
2022/02/07 04:52:00;;;;;;;6.70;2.00;;;3.30;99.90;;;;;;5098569;28;20843;-80
2022/02/07 05:00:25;;;;;;;7.70;2.40;;;3.40;99.90;;;;;;5100863;28;20404;-80
2022/02/07 05:05:29;;;;;;;7.57;1.93;;;3.30;99.90;;;;;;5090666;28;20386;-80
2022/02/07 05:13:45;;;;;;;9.40;2.47;;;3.40;99.90;;;;;;5109725;28;20406;-79
2022/02/07 05:16:22;;;;;;;6.88;2.05;;;3.40;99.90;;;;;;5076542;28;20384;-80
2022/02/07 05:18:52;;;;;;;6.35;2.10;;;3.40;99.90;;;;;;5105899;28;20431;-81
2022/02/07 05:21:18;;;;;;;8.35;2.40;;;3.40;99.90;;;;;;5089497;28;20449;-80
2022/02/07 05:23:43;;;;;;;8.50;2.10;;;3.40;99.90;;;;;;5100689;28;20388;-79
2022/02/07 05:26:10;;;;;;;7.03;2.13;;;3.40;99.90;;;;;;5090326;28;20461;-82
2022/02/07 05:28:35;;;;;;;7.47;2.17;;;3.50;99.90;;;;;;5104845;28;20886;-80
2022/02/07 05:31:01;;;;;;;8.27;2.43;;;3.50;99.90;;;;;;5077493;28;20443;-81
2022/02/07 05:33:26;;;;;;;8.20;2.63;;;3.50;99.90;;;;;;5105759;28;20518;-82
2022/02/07 05:35:52;;;;;;;8.07;2.40;;;3.50;99.90;;;;;;5090091;28;20380;-81
2022/02/07 05:38:18;;;;;;;7.30;2.50;;;3.50;99.90;;;;;;5090688;28;20385;-80
2022/02/07 05:40:56;;;;;;;8.07;2.30;;;3.50;99.90;;;;;;5091406;28;20388;-81
2022/02/07 05:43:22;;;;;;;6.85;2.53;;;3.50;99.90;;;;;;5092881;28;20407;-80
2022/02/07 05:45:48;;;;;;;8.83;2.60;;;3.40;99.90;;;;;;5097040;28;20814;-81
2022/02/07 05:48:13;;;;;;;7.83;2.40;;;3.40;99.90;;;;;;5106827;28;20412;-81
2022/02/07 05:50:39;;;;;;;10.48;2.80;;;3.40;99.90;;;;;;5112450;28;20400;-82
2022/02/07 05:53:05;;;;;;;8.98;2.50;;;3.40;99.90;;;;;;5089735;28;20743;-80
2022/02/07 05:55:30;;;;;;;7.30;2.40;;;3.40;99.90;;;;;;5076619;28;20402;-81
2022/02/07 05:57:56;;;;;;;9.20;2.47;;;3.50;99.90;;;;;;5097520;28;20463;-82
2022/02/07 06:00:21;;;;;;;8.75;2.67;;;3.50;99.90;;;;;;5103783;28;20785;-81
2022/02/07 06:02:47;;;;;;;11.15;2.90;;;3.50;99.90;;;;;;5109025;28;20487;-81
2022/02/07 06:05:14;;;;;;;9.70;2.72;;;3.50;99.90;;;;;;5113073;28;20363;-79
2022/02/07 06:07:40;;;;;;;7.47;2.33;;;3.50;99.90;;;;;;5114556;28;20410;-82
2022/02/07 06:10:07;;;;;;;7.63;2.07;;;3.50;99.90;;;;;;5114781;28;20417;-81
2022/02/07 06:12:34;;;;;;;9.98;2.60;;;3.50;99.90;;;;;;5114938;28;20403;-81
2022/02/07 06:15:00;;;;;;;10.48;3.20;;;3.50;99.90;;;;;;5114925;27;20396;-80
2022/02/07 06:17:25;;;;;;;9.67;3.00;;;3.50;99.90;;;;;;5123127;27;20435;-81
2022/02/07 06:19:53;;;;;;;8.73;2.92;;;3.50;99.90;;;;;;5117070;27;20497;-82
2022/02/07 06:22:18;;;;;;;10.17;2.87;;;3.50;99.90;;;;;;5105539;28;20881;-83
2022/02/07 06:24:44;;;;;;;12.13;3.00;;;3.50;99.90;;;;;;5113647;28;20393;-81
2022/02/07 06:27:09;;;;;;;9.00;2.87;;;3.50;99.90;;;;;;5114031;28;20390;-81
2022/02/07 06:29:36;;;;;;;8.90;3.00;;;3.50;99.90;;;;;;5114124;28;20393;-83
2022/02/07 06:32:02;;;;;;;10.80;2.75;;;3.50;99.90;;;;;;5113960;28;20406;-83
2022/02/07 06:34:28;;;;;;;11.05;3.25;;;3.50;99.90;;;;;;5114181;28;20450;-81
2022/02/07 06:36:53;;;;;;;6.97;2.80;;;3.60;99.90;;;;;;5115122;28;21227;-82
2022/02/07 06:39:19;;;;;;;8.37;2.50;;;3.60;99.90;;;;;;5095184;28;20383;-82
2022/02/07 06:41:46;;;;;;;10.23;3.17;;;3.70;99.90;;;;;;5095879;28;20892;-81
2022/02/07 06:44:11;;;;;;;10.05;2.60;;;3.60;99.90;;;;;;5094303;28;20445;-82
2022/02/07 06:46:37;;;;;;;10.38;2.70;;;3.70;99.90;;;;;;5114589;28;20426;-81
2022/02/07 06:49:03;;;;;;;9.48;3.17;;;3.70;99.90;;;;;;5108979;28;20384;-82
2022/02/07 06:51:29;;;;;;;10.18;2.90;;;3.70;99.90;;;;;;5093019;28;21019;-82
2022/02/07 06:53:54;;;;;;;9.25;2.90;;;3.80;99.90;;;;;;5093198;28;20408;-82
2022/02/07 06:56:20;;;;;;;9.60;2.77;;;3.80;99.90;;;;;;5075592;28;20432;-82
2022/02/07 06:58:47;;;;;;;11.63;2.70;;;3.80;99.90;;;;;;5104853;28;20369;-81
2022/02/07 07:01:13;;;;;;;10.38;2.88;;;3.80;99.90;;;;;;5091340;28;20396;-81
2022/02/07 07:03:43;;;;;;;11.43;2.72;;;4.00;99.90;;;;;;5106387;28;20716;-82
2022/02/07 07:06:09;;;;;;;10.07;2.80;;;3.90;99.90;;;;;;5106452;28;20774;-81
2022/02/07 07:08:39;;;;;;;11.60;2.78;;;3.90;99.90;;;;;;5095815;28;20387;-81
2022/02/07 07:11:05;;;;;;;8.88;2.80;;;3.90;99.90;;;;;;5093629;28;20382;-82
2022/02/07 07:13:40;;;;;;;10.63;2.92;;;3.90;99.90;;;;;;5111532;28;20387;-82
2022/02/07 07:16:50;;;;;;;9.60;2.75;;;4.00;99.90;;;;;;5113390;28;20487;-82
2022/02/07 07:18:59;;;;;;;9.02;2.90;;;4.00;99.90;;;;;;5096466;28;20396;-81
2022/02/07 07:21:26;;;;;;;9.38;2.85;;;3.90;99.90;;;;;;5094006;28;20438;-81
2022/02/07 07:23:52;;;;;;;10.80;2.95;;;3.90;99.90;;;;;;5093258;28;20388;-81
2022/02/07 07:26:20;;;;;;;10.70;2.97;;;4.00;99.90;;;;;;5092644;28;20396;-83
2022/02/07 07:28:45;;;;;;;9.75;2.88;;;4.00;99.90;;;;;;5080712;28;20401;-81
2022/02/07 07:31:13;;;;;;;13.18;3.33;;;4.00;99.90;;;;;;5098506;28;20967;-82
2022/02/07 07:33:41;;;;;;;13.15;3.40;;;4.00;99.90;;;;;;5076837;28;20735;-81
2022/02/07 07:36:06;;;;;;;10.48;3.47;;;4.00;99.90;;;;;;5091871;28;20857;-82
2022/02/07 07:38:32;;;;;;;15.95;3.25;;;4.10;99.90;;;;;;5101091;28;20386;-82
2022/02/07 07:40:58;;;;;;;12.77;3.43;;;4.10;99.90;;;;;;5093004;28;20402;-81
2022/02/07 07:43:23;;;;;;;13.20;3.40;;;4.10;99.90;;;;;;5112551;28;20371;-82
2022/02/07 07:45:59;;;;;;;11.27;3.63;;;4.00;99.90;;;;;;5111456;28;20406;-82
2022/02/07 07:48:26;;;;;;;10.32;3.60;;;4.00;99.90;;;;;;5085416;28;20570;-81
2022/02/07 07:50:56;;;;;;;11.43;3.38;;;4.00;99.90;;;;;;5092112;28;20380;-82
2022/02/07 08:01:20;;;;;;;11.57;3.57;;;4.10;99.90;;;;;;5098806;28;20529;-82
2022/02/07 08:03:51;;;;;;;10.20;3.22;;;4.40;99.90;;;;;;5103409;28;20390;-82
2022/02/07 08:06:30;;;;;;;10.07;2.85;;;4.40;99.90;;;;;;5110619;28;20495;-81
2022/02/07 08:11:32;;;;;;;7.22;2.28;;;4.40;99.90;;;;;;5092926;28;20388;-82
2022/02/07 08:13:59;;;;;;;8.20;2.70;;;4.30;99.90;;;;;;5072684;28;20385;-82
2022/02/07 08:16:25;;;;;;;8.75;2.88;;;4.50;99.90;;;;;;5106897;28;20400;-81
2022/02/07 08:18:50;;;;;;;11.15;2.88;;;4.40;99.90;;;;;;5073171;28;20380;-81
2022/02/07 08:21:16;;;;;;;8.98;2.70;;;4.40;99.90;;;;;;5087954;28;20387;-81
2022/02/07 08:23:43;;;;;;;8.82;2.38;;;4.50;99.90;;;;;;5111748;28;20383;-81
2022/02/07 08:26:09;;;;;;;10.00;2.80;;;4.50;99.90;;;;;;5111067;28;20395;-81
2022/02/07 08:28:35;;;;;;;11.93;3.17;;;4.50;99.90;;;;;;5085994;28;21071;-82
2022/02/07 08:31:01;;;;;;;9.73;2.43;;;4.50;99.90;;;;;;5085057;28;20394;-81
2022/02/07 08:33:26;;;;;;;11.67;3.97;;;4.50;99.90;;;;;;5093064;28;20436;-81
2022/02/07 08:35:52;;;;;;;11.35;2.90;;;4.60;99.90;;;;;;5112081;28;20370;-81
2022/02/07 08:38:19;;;;;;;10.77;2.77;;;4.60;99.90;;;;;;5093000;28;20430;-81
2022/02/07 08:40:48;;;;;;;10.95;2.67;;;4.60;99.90;;;;;;5112780;28;20413;-80
2022/02/07 08:43:14;;;;;;;8.43;3.05;;;4.60;99.90;;;;;;5095456;28;20745;-81
2022/02/07 08:45:41;;;;;;;11.48;3.00;;;4.70;99.90;;;;;;5112272;28;20398;-80
2022/02/07 08:48:06;;;;;;;10.50;2.85;;;4.70;99.90;;;;;;5097134;28;20451;-82
2022/02/07 08:50:33;;;;;;;9.55;3.00;;;4.80;99.90;;;;;;5105851;28;20487;-81
2022/02/07 08:53:01;;;;;;;9.27;2.97;;;4.90;99.90;;;;;;5073766;28;20387;-81
2022/02/07 08:55:32;;;;;;;11.60;3.00;;;4.80;99.90;;;;;;5071889;28;20426;-81
2022/02/07 08:58:03;;;;;;;9.95;2.83;;;4.80;99.90;;;;;;5093969;28;20441;-81
2022/02/07 09:00:42;;;;;;;9.85;3.17;;;4.80;99.90;;;;;;5072793;28;20444;-81
2022/02/07 09:03:23;;;;;;;8.88;2.83;;;5.00;99.90;;;;;;5090863;28;20388;-81
2022/02/07 09:11:08;;;;;;;12.57;3.90;;;5.10;99.90;;;;;;5090095;28;20463;-81
2022/02/07 09:13:36;;;;;;;12.70;3.17;;;5.20;99.90;;;;;;5090178;28;20372;-81
2022/02/07 09:16:15;;;;;;;10.43;3.28;;;5.10;99.90;;;;;;5096971;28;20422;-82
2022/02/07 09:18:41;;;;;;;12.93;3.38;;;5.10;99.90;;;;;;5114158;28;20429;-81
2022/02/07 09:21:08;;;;;;;14.07;3.33;;;5.30;99.90;;;;;;5106520;28;20466;-81
2022/02/07 09:23:35;;;;;;;13.13;3.50;;;5.30;99.90;;;;;;5097734;28;20380;-81
2022/02/07 09:26:02;;;;;;;12.55;3.40;;;5.40;99.90;;;;;;5100196;28;20395;-81
2022/02/07 09:28:28;;;;;;;11.27;3.13;;;5.60;99.90;;;;;;5099043;28;20382;-81
2022/02/07 09:30:54;;;;;;;11.67;3.30;;;5.80;99.90;;;;;;5116920;28;20387;-81
2022/02/07 09:33:21;;;;;;;18.23;3.20;;;5.70;99.90;;;;;;5097036;28;20375;-81
2022/02/07 09:35:49;;;;;;;10.70;3.10;;;5.80;99.90;;;;;;5106034;28;20454;-82
2022/02/07 09:38:16;;;;;;;10.90;3.88;;;5.80;99.90;;;;;;5076457;28;20400;-82
2022/02/07 09:40:42;;;;;;;14.93;3.80;;;6.00;99.90;;;;;;5095755;28;20878;-82
2022/02/07 09:43:09;;;;;;;13.45;3.45;;;6.10;99.90;;;;;;5111777;28;20442;-81
2022/02/07 09:45:38;;;;;;;15.15;3.80;;;6.10;99.90;;;;;;5115541;28;20367;-81
2022/02/07 09:48:06;;;;;;;16.77;3.72;;;6.30;99.90;;;;;;5096358;28;20390;-81
2022/02/07 09:50:32;;;;;;;13.40;4.00;;;6.40;99.90;;;;;;5085106;28;20384;-82
2022/02/07 09:52:58;;;;;;;10.60;3.17;;;6.40;99.90;;;;;;5105683;27;20392;-83
2022/02/07 09:55:25;;;;;;;13.90;3.90;;;6.40;99.90;;;;;;5098320;28;20387;-83
2022/02/07 09:57:53;;;;;;;12.50;3.33;;;6.40;99.90;;;;;;5097465;27;20375;-83
2022/02/07 10:00:26;;;;;;;15.65;4.30;;;6.50;99.90;;;;;;5121904;27;20397;-83
2022/02/07 10:03:35;;;;;;;12.77;3.70;;;6.60;99.90;;;;;;5114599;28;20395;-83
2022/02/07 10:06:05;;;;;;;14.10;3.63;;;6.60;99.90;;;;;;5110156;28;20411;-83
2022/02/07 10:08:50;;;;;;;17.80;4.53;;;6.70;99.90;;;;;;5096192;28;20397;-82
2022/02/07 10:11:26;;;;;;;13.70;3.73;;;6.60;99.90;;;;;;5112319;27;20496;-83
2022/02/07 10:40:40;;;;;;;14.53;3.97;;;7.10;99.90;;;;;;5112267;28;20382;-84
2022/02/07 10:46:00;;;;;;;15.90;4.90;;;7.10;99.90;;;;;;5093216;28;20441;-81
2022/02/07 10:48:34;;;;;;;19.58;5.07;;;7.20;99.90;;;;;;5108260;28;20437;-81
2022/02/07 10:51:21;;;;;;;14.05;4.00;;;7.20;99.90;;;;;;5073265;28;20434;-80
2022/02/07 10:53:47;;;;;;;15.70;4.33;;;7.10;99.90;;;;;;5092879;28;20385;-81
2022/02/07 10:56:15;;;;;;;19.23;5.20;;;7.10;99.90;;;;;;5092351;28;20364;-83
2022/02/07 10:58:41;;;;;;;19.67;5.15;;;7.10;99.90;;;;;;5092806;28;20372;-82
2022/02/07 11:01:13;;;;;;;19.52;5.32;;;7.20;99.90;;;;;;5091729;28;20949;-82
2022/02/07 11:03:48;;;;;;;17.27;4.72;;;7.20;99.90;;;;;;5092674;28;20368;-83
2022/02/07 11:06:18;;;;;;;17.40;4.67;;;7.20;99.90;;;;;;5108434;28;20778;-83
2022/02/07 11:09:22;;;;;;;18.75;5.18;;;7.20;99.90;;;;;;5074259;28;20380;-81
2022/02/07 11:19:46;;;;;;;18.30;5.40;;;7.20;99.90;;;;;;5092401;28;20384;-82
2022/02/07 11:25:08;;;;;;;18.58;5.15;;;7.30;99.90;;;;;;5093553;28;20414;-82
2022/02/07 11:27:38;;;;;;;16.90;4.90;;;7.30;99.90;;;;;;5092289;28;20408;-81
2022/02/07 11:30:15;;;;;;;17.73;5.55;;;7.30;99.90;;;;;;5091309;28;20443;-82
2022/02/07 11:32:42;;;;;;;20.10;5.70;;;7.20;99.90;;;;;;5091147;28;20391;-83
2022/02/07 11:35:17;;;;;;;17.63;5.05;;;7.30;99.90;;;;;;5073091;28;20852;-81
2022/02/07 11:38:12;;;;;;;16.88;4.70;;;7.40;99.90;;;;;;5072765;28;20389;-82
2022/02/07 11:40:39;;;;;;;22.40;6.10;;;7.40;99.90;;;;;;5080062;28;20419;-83
2022/02/07 11:43:06;;;;;;;19.37;5.77;;;7.30;99.90;;;;;;5091876;28;20402;-81
2022/02/07 11:45:50;;;;;;;19.97;5.13;;;7.10;99.90;;;;;;5107248;28;20430;-82
2022/02/07 11:48:38;;;;;;;21.92;5.35;;;7.10;99.90;;;;;;5091468;28;20537;-81
2022/02/07 11:51:18;;;;;;;20.08;5.53;;;7.20;99.90;;;;;;5074077;28;20396;-82
2022/02/07 11:53:54;;;;;;;17.85;5.32;;;7.40;99.90;;;;;;5092556;28;20388;-81
2022/02/07 11:56:53;;;;;;;18.60;4.83;;;7.30;99.90;;;;;;5091449;28;20862;-81
2022/02/07 11:59:38;;;;;;;21.63;5.30;;;7.30;99.90;;;;;;5091758;28;20423;-81
2022/02/07 12:02:15;;;;;;;24.48;5.32;;;7.40;99.90;;;;;;5107615;28;20396;-82
2022/02/07 12:04:44;;;;;;;21.55;5.38;;;7.50;99.90;;;;;;5107142;28;20399;-82
2022/02/07 12:07:29;;;;;;;21.85;6.10;;;7.40;99.90;;;;;;5098143;28;20410;-81
2022/02/07 12:12:49;;;;;;;17.70;5.07;;;7.50;99.90;;;;;;5102806;28;20469;-83
2022/02/07 12:15:32;;;;;;;21.30;5.57;;;7.40;99.90;;;;;;5119305;27;20384;-84
2022/02/07 12:18:00;;;;;;;21.05;6.07;;;7.20;99.90;;;;;;5079842;28;20431;-84
2022/02/07 12:20:31;;;;;;;20.30;5.43;;;7.20;99.90;;;;;;5107055;28;20377;-84
2022/02/07 12:23:10;;;;;;;18.33;5.50;;;7.20;99.90;;;;;;5082084;28;20414;-84
2022/02/07 12:25:43;;;;;;;23.58;5.80;;;7.20;99.90;;;;;;5112047;28;20390;-83
2022/02/07 12:28:17;;;;;;;20.13;5.88;;;7.20;99.90;;;;;;5112282;28;20375;-83
2022/02/07 12:33:22;;;;;;;19.17;6.07;;;7.20;99.90;;;;;;5104072;28;20495;-84
2022/02/07 12:35:49;;;;;;;21.60;5.93;;;7.30;99.90;;;;;;5093753;28;20381;-83
2022/02/07 12:38:14;;;;;;;17.20;5.38;;;7.60;99.90;;;;;;5111421;28;20398;-84
2022/02/07 12:40:41;;;;;;;19.95;5.75;;;7.60;99.90;;;;;;5092505;28;20378;-84
2022/02/07 12:43:10;;;;;;;21.25;6.00;;;7.50;99.90;;;;;;5092389;28;20452;-82
2022/02/07 12:45:38;;;;;;;17.75;5.63;;;7.40;99.90;;;;;;5092625;28;20416;-86
2022/02/07 12:48:09;;;;;;;19.25;4.95;;;7.20;99.90;;;;;;5105510;28;20488;-84
2022/02/07 12:50:34;;;;;;;15.10;5.03;;;7.20;99.90;;;;;;5089418;28;20429;-83
2022/02/07 12:53:00;;;;;;;18.15;5.13;;;7.20;99.90;;;;;;5095434;28;20384;-85
2022/02/07 12:55:26;;;;;;;16.33;5.15;;;7.30;99.90;;;;;;5109778;28;20395;-83
2022/02/07 12:57:52;;;;;;;21.00;5.57;;;7.30;99.90;;;;;;5110812;28;20402;-84
2022/02/07 13:00:19;;;;;;;17.85;5.78;;;7.30;99.90;;;;;;5110632;28;20421;-84
2022/02/07 13:02:48;;;;;;;18.27;5.72;;;7.30;99.90;;;;;;5097886;27;20400;-82
2022/02/07 13:05:16;;;;;;;18.52;5.18;;;7.20;99.90;;;;;;5132089;27;20368;-85
2022/02/07 13:07:44;;;;;;;19.30;5.63;;;7.20;99.90;;;;;;5105337;28;21035;-84
2022/02/07 13:10:17;;;;;;;21.50;4.97;;;7.30;99.90;;;;;;5091963;28;20390;-83
2022/02/07 13:12:55;;;;;;;19.00;5.40;;;7.30;99.90;;;;;;5108933;28;20386;-85
2022/02/07 13:15:23;;;;;;;16.50;4.57;;;;;;;;;;5098516;28;20425;-84
2022/02/07 13:17:52;;;;;;;14.18;4.25;;;;;;;;;;5071695;28;20377;-82
2022/02/07 13:20:19;;;;;;;14.07;4.13;;;;;;;;;;5072160;28;20380;-84
2022/02/07 13:22:46;;;;;;;15.15;4.40;;;7.50;99.90;;;;;;5072780;28;20449;-83
2022/02/07 13:25:13;;;;;;;14.75;4.68;;;7.40;99.90;;;;;;5092048;28;20369;-84
2022/02/07 13:27:39;;;;;;;17.15;4.53;;;7.40;99.90;;;;;;5110792;28;20410;-84
2022/02/07 13:30:10;;;;;;;16.17;4.63;;;7.40;99.90;;;;;;5110357;28;20483;-84
2022/02/07 13:32:38;;;;;;;16.05;4.88;;;7.40;99.90;;;;;;5083843;28;20418;-84
2022/02/07 13:35:10;;;;;;;16.83;4.73;;;7.50;99.90;;;;;;5127991;28;20379;-82
2022/02/07 13:37:37;;;;;;;16.48;5.07;;;7.50;99.90;;;;;;5131162;28;20871;-84
2022/02/07 13:40:06;;;;;;;15.25;5.30;;;7.70;99.90;;;;;;5113433;28;20380;-84
2022/02/07 13:42:38;;;;;;;15.45;4.50;;;7.80;99.90;;;;;;5112445;28;20380;-84
2022/02/07 13:45:34;;;;;;;14.80;4.35;;;7.90;99.90;;;;;;5092233;28;20883;-84
2022/02/07 13:48:00;;;;;;;13.95;4.03;;;8.00;99.90;;;;;;5062541;28;20410;-84
2022/02/07 13:50:35;;;;;;;14.40;4.03;;;8.00;99.90;;;;;;5103380;28;20481;-84
2022/02/07 13:53:03;;;;;;;13.13;3.38;;;8.00;99.90;;;;;;5093542;28;20531;-83
2022/02/07 13:55:42;;;;;;;16.35;3.88;;;7.90;99.90;;;;;;5098518;28;20386;-84
2022/02/07 13:58:13;;;;;;;15.03;4.37;;;7.70;99.90;;;;;;5111248;28;20393;-85
2022/02/07 14:00:49;;;;;;;13.23;4.45;;;7.90;99.90;;;;;;5099296;28;20479;-84
2022/02/07 14:03:18;;;;;;;15.68;4.43;;;7.80;99.90;;;;;;5080270;28;20399;-83
2022/02/07 14:05:48;;;;;;;14.95;4.07;;;7.80;99.90;;;;;;5092434;28;20798;-83
2022/02/07 14:08:15;;;;;;;14.93;4.72;;;7.80;99.90;;;;;;5095698;28;20383;-83
2022/02/07 14:10:43;;;;;;;14.35;3.88;;;8.00;99.90;;;;;;5111204;28;20457;-84
2022/02/07 14:13:12;;;;;;;13.73;4.38;;;8.00;99.90;;;;;;5111429;28;20378;-84
2022/02/07 14:15:39;;;;;;;13.57;4.00;;;8.00;99.90;;;;;;5094886;28;20374;-84
2022/02/07 14:18:08;;;;;;;14.25;4.25;;;7.70;99.90;;;;;;5113640;28;20406;-84
2022/02/07 14:20:36;;;;;;;13.73;6.40;;;7.50;99.90;;;;;;5095008;28;20446;-84
2022/02/07 14:23:06;;;;;;;12.25;4.75;;;7.40;99.90;;;;;;5094007;28;20868;-82
2022/02/07 14:25:31;;;;;;;16.83;5.40;;;7.20;99.90;;;;;;5114085;28;20375;-83
2022/02/07 14:27:59;;;;;;;25.63;12.52;;;7.10;99.90;;;;;;5113504;28;20387;-83
2022/02/07 14:30:26;;;;;;;13.02;4.70;;;6.80;99.90;;;;;;5114030;28;20881;-83
2022/02/07 14:32:54;;;;;;;18.23;4.65;;;6.90;99.90;;;;;;5101025;28;20487;-84
2022/02/07 14:35:20;;;;;;;16.02;4.85;;;7.00;99.90;;;;;;5110847;28;21251;-86
2022/02/07 14:37:46;;;;;;;17.20;4.82;;;7.00;99.90;;;;;;5111740;28;20401;-84
2022/02/07 14:40:12;;;;;;;14.18;4.63;;;7.20;99.90;;;;;;5095685;28;20862;-81
2022/02/07 14:42:38;;;;;;;14.17;4.20;;;7.20;99.90;;;;;;5110303;28;20490;-83
2022/02/07 14:45:13;;;;;;;14.33;4.47;;;7.30;99.90;;;;;;5094593;28;20473;-84
2022/02/07 14:50:13;;;;;;;15.75;4.10;;;7.30;99.90;;;;;;5108142;27;20953;-84
2022/02/07 14:52:39;;;;;;;11.38;4.28;;;7.30;99.90;;;;;;5111309;28;20374;-83
2022/02/07 14:55:06;;;;;;;18.73;4.60;;;7.30;99.90;;;;;;5109898;28;20389;-81
2022/02/07 14:57:32;;;;;;;17.08;5.07;;;7.20;99.90;;;;;;5090702;28;20379;-82
2022/02/07 14:59:58;;;;;;;14.13;4.15;;;7.20;99.90;;;;;;5111481;28;20383;-81
2022/02/07 15:02:24;;;;;;;18.17;4.00;;;7.00;99.90;;;;;;5087386;28;20417;-83
2022/02/07 15:04:53;;;;;;;13.82;4.00;;;6.90;99.90;;;;;;5094236;28;20393;-83
2022/02/07 15:07:20;;;;;;;15.85;4.38;;;6.90;99.90;;;;;;5113683;28;20398;-83
2022/02/07 15:09:46;;;;;;;13.40;4.10;;;6.60;99.90;;;;;;5112152;28;20424;-82
2022/02/07 15:12:11;;;;;;;15.68;4.15;;;6.50;99.90;;;;;;5114300;28;20379;-83
2022/02/07 15:14:37;;;;;;;16.02;4.18;;;6.40;99.90;;;;;;5092616;28;20887;-83
2022/02/07 15:17:03;;;;;;;19.20;4.85;;;6.40;99.90;;;;;;5104987;28;20368;-84
2022/02/07 15:19:29;;;;;;;16.45;5.03;;;6.40;99.90;;;;;;5112520;28;20517;-83
2022/02/07 15:21:54;;;;;;;16.13;4.23;;;6.40;99.90;;;;;;5093198;28;20423;-83
2022/02/07 15:24:21;;;;;;;15.57;4.77;;;6.40;99.90;;;;;;5111852;28;20393;-85
2022/02/07 15:26:48;;;;;;;15.10;4.70;;;6.30;99.90;;;;;;5108661;28;20457;-84
2022/02/07 15:29:13;;;;;;;15.75;4.57;;;6.30;99.90;;;;;;5106767;28;20374;-84
2022/02/07 15:31:45;;;;;;;15.45;4.07;;;6.20;99.90;;;;;;5112457;28;20371;-82